Cardenal Cagliero, Argentina
Current Conditions -  °F | °C
As of 5:00 AM on Thursday 18 Dec 2014 (Local Time) from SAZN Reporting Station
Clear Clear  
Wind Chill: 66°   Ceiling: Unl
Heat Index: 66°   Visibility: 6mi
Dew Point: 43°   Wind: 7mph
Humidity: 43%   Direction: 250°WSW
Pressure: 29.88"   Gusts: NA
Location:  40.65°S, 62.75°W
Report Text: SAZN 180800Z 25006KT CAVOK 19/06 Q1012
Loading
Personal Weather Stations






























Interactive Weather Map New forecast layout! Learn more

10-Day Weather Forecast

Advertisements
Track Severe Weather on mobile